sensor_id;sensor_type;location;lat;lon;timestamp;temperature;humidity
5017;DHT22;2527;50.892;16.706;2023-05-10T00:01:08;13.60;99.90
5017;DHT22;2527;50.892;16.706;2023-05-10T00:03:34;13.60;99.90
5017;DHT22;2527;50.892;16.706;2023-05-10T00:06:05;13.60;99.90
5017;DHT22;2527;50.892;16.706;2023-05-10T00:08:35;13.50;99.90
5017;DHT22;2527;50.892;16.706;2023-05-10T00:11:01;13.50;99.90
5017;DHT22;2527;50.892;16.706;2023-05-10T00:13:26;13.50;99.90
5017;DHT22;2527;50.892;16.706;2023-05-10T00:15:52;13.50;99.90
5017;DHT22;2527;50.892;16.706;2023-05-10T00:18:18;13.50;99.90
5017;DHT22;2527;50.892;16.706;2023-05-10T00:20:44;13.50;99.90
5017;DHT22;2527;50.892;16.706;2023-05-10T00:23:11;13.40;99.90
5017;DHT22;2527;50.892;16.706;2023-05-10T00:25:38;13.40;99.90
5017;DHT22;2527;50.892;16.706;2023-05-10T00:28:03;13.40;99.90
5017;DHT22;2527;50.892;16.706;2023-05-10T00:30:30;13.40;99.90
5017;DHT22;2527;50.892;16.706;2023-05-10T00:32:56;13.40;99.90
5017;DHT22;2527;50.892;16.706;2023-05-10T00:35:22;13.30;99.90
5017;DHT22;2527;50.892;16.706;2023-05-10T00:37:48;13.30;99.90
5017;DHT22;2527;50.892;16.706;2023-05-10T00:40:13;13.30;99.90
5017;DHT22;2527;50.892;16.706;2023-05-10T00:42:40;13.20;99.90
5017;DHT22;2527;50.892;16.706;2023-05-10T00:45:06;13.20;99.90
5017;DHT22;2527;50.892;16.706;2023-05-10T00:47:32;13.20;99.90
5017;DHT22;2527;50.892;16.706;2023-05-10T00:49:59;13.10;99.90
5017;DHT22;2527;50.892;16.706;2023-05-10T00:52:26;13.10;99.90
5017;DHT22;2527;50.892;16.706;2023-05-10T00:54:52;13.10;99.90
5017;DHT22;2527;50.892;16.706;2023-05-10T00:57:19;13.10;99.90
5017;DHT22;2527;50.892;16.706;2023-05-10T00:59:44;13.00;99.90
5017;DHT22;2527;50.892;16.706;2023-05-10T01:02:11;13.00;99.90
5017;DHT22;2527;50.892;16.706;2023-05-10T01:04:37;13.00;99.90
5017;DHT22;2527;50.892;16.706;2023-05-10T01:07:03;12.90;99.90
5017;DHT22;2527;50.892;16.706;2023-05-10T01:09:29;12.90;99.90
5017;DHT22;2527;50.892;16.706;2023-05-10T01:11:54;12.90;99.90
5017;DHT22;2527;50.892;16.706;2023-05-10T01:14:20;12.90;99.90
5017;DHT22;2527;50.892;16.706;2023-05-10T01:16:47;12.80;99.90
5017;DHT22;2527;50.892;16.706;2023-05-10T01:19:17;12.80;99.90
5017;DHT22;2527;50.892;16.706;2023-05-10T01:32:08;12.80;99.90
5017;DHT22;2527;50.892;16.706;2023-05-10T01:34:45;12.70;99.90
5017;DHT22;2527;50.892;16.706;2023-05-10T01:37:15;12.70;99.90
5017;DHT22;2527;50.892;16.706;2023-05-10T01:42:10;12.70;99.90
5017;DHT22;2527;50.892;16.706;2023-05-10T01:44:57;12.70;99.90
5017;DHT22;2527;50.892;16.706;2023-05-10T01:47:46;12.70;99.90
5017;DHT22;2527;50.892;16.706;2023-05-10T01:50:10;12.70;99.90
5017;DHT22;2527;50.892;16.706;2023-05-10T01:52:38;12.70;99.90
5017;DHT22;2527;50.892;16.706;2023-05-10T01:55:07;12.70;99.90
5017;DHT22;2527;50.892;16.706;2023-05-10T01:57:35;12.80;99.90
5017;DHT22;2527;50.892;16.706;2023-05-10T02:00:05;12.80;99.90
5017;DHT22;2527;50.892;16.706;2023-05-10T02:02:35;12.80;99.90
5017;DHT22;2527;50.892;16.706;2023-05-10T02:05:02;12.80;99.90
5017;DHT22;2527;50.892;16.706;2023-05-10T02:07:29;12.80;99.90
5017;DHT22;2527;50.892;16.706;2023-05-10T02:09:57;12.80;99.90
5017;DHT22;2527;50.892;16.706;2023-05-10T02:12:23;12.80;99.90
5017;DHT22;2527;50.892;16.706;2023-05-10T02:14:49;12.80;99.90
5017;DHT22;2527;50.892;16.706;2023-05-10T02:17:18;12.80;99.90
5017;DHT22;2527;50.892;16.706;2023-05-10T02:19:47;12.80;99.90
5017;DHT22;2527;50.892;16.706;2023-05-10T02:22:12;12.70;99.90
5017;DHT22;2527;50.892;16.706;2023-05-10T02:24:40;12.70;99.90
5017;DHT22;2527;50.892;16.706;2023-05-10T02:27:09;12.70;99.90
5017;DHT22;2527;50.892;16.706;2023-05-10T02:29:35;12.70;99.90
5017;DHT22;2527;50.892;16.706;2023-05-10T02:32:01;12.70;99.90
5017;DHT22;2527;50.892;16.706;2023-05-10T02:34:28;12.70;99.90
5017;DHT22;2527;50.892;16.706;2023-05-10T02:36:56;12.70;99.90
5017;DHT22;2527;50.892;16.706;2023-05-10T02:39:22;12.70;99.90
5017;DHT22;2527;50.892;16.706;2023-05-10T02:41:50;12.70;99.90
5017;DHT22;2527;50.892;16.706;2023-05-10T02:44:17;12.70;99.90
5017;DHT22;2527;50.892;16.706;2023-05-10T02:46:43;12.70;99.90
5017;DHT22;2527;50.892;16.706;2023-05-10T02:49:09;12.70;99.90
5017;DHT22;2527;50.892;16.706;2023-05-10T02:51:37;12.80;99.90
5017;DHT22;2527;50.892;16.706;2023-05-10T02:54:24;12.80;99.90
5017;DHT22;2527;50.892;16.706;2023-05-10T02:56:59;12.70;99.90
5017;DHT22;2527;50.892;16.706;2023-05-10T02:59:26;12.80;99.90
5017;DHT22;2527;50.892;16.706;2023-05-10T03:01:52;12.70;99.90
5017;DHT22;2527;50.892;16.706;2023-05-10T03:04:18;12.70;99.90
5017;DHT22;2527;50.892;16.706;2023-05-10T03:06:43;12.70;99.90
5017;DHT22;2527;50.892;16.706;2023-05-10T03:09:10;12.70;99.90
5017;DHT22;2527;50.892;16.706;2023-05-10T03:16:45;12.70;99.90
5017;DHT22;2527;50.892;16.706;2023-05-10T03:19:16;12.70;99.90
5017;DHT22;2527;50.892;16.706;2023-05-10T03:21:43;12.70;99.90
5017;DHT22;2527;50.892;16.706;2023-05-10T03:24:11;12.70;99.90
5017;DHT22;2527;50.892;16.706;2023-05-10T03:26:37;12.70;99.90
5017;DHT22;2527;50.892;16.706;2023-05-10T03:29:04;12.70;99.90
5017;DHT22;2527;50.892;16.706;2023-05-10T03:31:30;12.80;99.90
5017;DHT22;2527;50.892;16.706;2023-05-10T03:33:56;12.80;99.90
5017;DHT22;2527;50.892;16.706;2023-05-10T03:36:21;12.80;99.90
5017;DHT22;2527;50.892;16.706;2023-05-10T03:38:47;12.80;99.90
5017;DHT22;2527;50.892;16.706;2023-05-10T03:41:13;12.80;99.90
5017;DHT22;2527;50.892;16.706;2023-05-10T03:43:40;12.80;99.90
5017;DHT22;2527;50.892;16.706;2023-05-10T03:46:06;12.80;99.90
5017;DHT22;2527;50.892;16.706;2023-05-10T03:48:33;12.80;99.90
5017;DHT22;2527;50.892;16.706;2023-05-10T03:50:58;12.80;99.90
5017;DHT22;2527;50.892;16.706;2023-05-10T03:53:24;12.90;99.90
5017;DHT22;2527;50.892;16.706;2023-05-10T03:55:50;12.90;99.90
5017;DHT22;2527;50.892;16.706;2023-05-10T03:58:16;12.90;99.90
5017;DHT22;2527;50.892;16.706;2023-05-10T04:00:41;13.00;99.90
5017;DHT22;2527;50.892;16.706;2023-05-10T04:03:10;13.00;99.90
5017;DHT22;2527;50.892;16.706;2023-05-10T04:05:35;13.10;99.90
5017;DHT22;2527;50.892;16.706;2023-05-10T04:08:02;13.90;99.90
5017;DHT22;2527;50.892;16.706;2023-05-10T04:10:28;15.40;99.90
5017;DHT22;2527;50.892;16.706;2023-05-10T04:12:54;16.90;99.90
5017;DHT22;2527;50.892;16.706;2023-05-10T04:15:21;18.30;99.90
5017;DHT22;2527;50.892;16.706;2023-05-10T04:17:47;19.60;99.90
5017;DHT22;2527;50.892;16.706;2023-05-10T04:20:12;20.80;99.90
5017;DHT22;2527;50.892;16.706;2023-05-10T04:22:38;21.80;99.90
5017;DHT22;2527;50.892;16.706;2023-05-10T04:25:04;22.70;99.90
5017;DHT22;2527;50.892;16.706;2023-05-10T04:27:32;23.60;99.90
5017;DHT22;2527;50.892;16.706;2023-05-10T04:29:59;24.40;99.90
5017;DHT22;2527;50.892;16.706;2023-05-10T04:32:25;25.10;99.90
5017;DHT22;2527;50.892;16.706;2023-05-10T04:34:51;25.80;99.90
5017;DHT22;2527;50.892;16.706;2023-05-10T04:37:16;26.40;99.90
5017;DHT22;2527;50.892;16.706;2023-05-10T04:39:42;27.00;99.90
5017;DHT22;2527;50.892;16.706;2023-05-10T04:42:08;27.50;99.90
5017;DHT22;2527;50.892;16.706;2023-05-10T04:44:35;28.10;99.90
5017;DHT22;2527;50.892;16.706;2023-05-10T04:47:01;28.60;99.90
5017;DHT22;2527;50.892;16.706;2023-05-10T04:49:28;29.10;99.90
5017;DHT22;2527;50.892;16.706;2023-05-10T04:51:55;29.50;99.90
5017;DHT22;2527;50.892;16.706;2023-05-10T04:54:20;29.90;99.90
5017;DHT22;2527;50.892;16.706;2023-05-10T04:56:46;30.30;99.90
5017;DHT22;2527;50.892;16.706;2023-05-10T04:59:12;30.90;99.90
5017;DHT22;2527;50.892;16.706;2023-05-10T05:01:38;31.40;99.90
5017;DHT22;2527;50.892;16.706;2023-05-10T05:04:03;31.80;99.90
5017;DHT22;2527;50.892;16.706;2023-05-10T05:06:29;32.30;99.90
5017;DHT22;2527;50.892;16.706;2023-05-10T05:08:54;32.80;99.90
5017;DHT22;2527;50.892;16.706;2023-05-10T05:11:20;33.30;99.90
5017;DHT22;2527;50.892;16.706;2023-05-10T05:13:47;33.80;99.90
5017;DHT22;2527;50.892;16.706;2023-05-10T05:16:13;34.10;99.90
5017;DHT22;2527;50.892;16.706;2023-05-10T05:18:38;34.40;99.90
5017;DHT22;2527;50.892;16.706;2023-05-10T05:23:40;35.00;99.90
5017;DHT22;2527;50.892;16.706;2023-05-10T05:26:05;35.40;99.90
5017;DHT22;2527;50.892;16.706;2023-05-10T05:28:31;35.70;99.90
5017;DHT22;2527;50.892;16.706;2023-05-10T05:30:59;35.90;99.90
5017;DHT22;2527;50.892;16.706;2023-05-10T05:33:26;36.20;99.90
5017;DHT22;2527;50.892;16.706;2023-05-10T05:35:52;36.40;99.90
5017;DHT22;2527;50.892;16.706;2023-05-10T05:38:18;36.60;99.90
5017;DHT22;2527;50.892;16.706;2023-05-10T05:40:44;36.80;99.90
5017;DHT22;2527;50.892;16.706;2023-05-10T05:43:10;36.90;99.90
5017;DHT22;2527;50.892;16.706;2023-05-10T05:45:37;37.00;99.90
5017;DHT22;2527;50.892;16.706;2023-05-10T05:48:03;37.20;99.90
5017;DHT22;2527;50.892;16.706;2023-05-10T05:50:28;37.20;99.90
5017;DHT22;2527;50.892;16.706;2023-05-10T05:52:54;37.30;99.90
5017;DHT22;2527;50.892;16.706;2023-05-10T05:55:22;37.50;99.90
5017;DHT22;2527;50.892;16.706;2023-05-10T05:57:49;37.50;99.90
5017;DHT22;2527;50.892;16.706;2023-05-10T06:00:15;37.50;99.90
5017;DHT22;2527;50.892;16.706;2023-05-10T06:02:40;37.60;99.90
5017;DHT22;2527;50.892;16.706;2023-05-10T06:05:06;37.60;99.90
5017;DHT22;2527;50.892;16.706;2023-05-10T06:07:31;37.60;99.90
5017;DHT22;2527;50.892;16.706;2023-05-10T06:09:57;37.60;99.90
5017;DHT22;2527;50.892;16.706;2023-05-10T06:12:23;37.50;99.90
5017;DHT22;2527;50.892;16.706;2023-05-10T06:14:48;37.40;99.90
5017;DHT22;2527;50.892;16.706;2023-05-10T06:17:14;37.20;99.90
5017;DHT22;2527;50.892;16.706;2023-05-10T06:19:39;36.80;99.90
5017;DHT22;2527;50.892;16.706;2023-05-10T06:22:06;35.70;99.90
5017;DHT22;2527;50.892;16.706;2023-05-10T06:24:32;34.20;99.90
5017;DHT22;2527;50.892;16.706;2023-05-10T06:26:58;32.50;99.90
5017;DHT22;2527;50.892;16.706;2023-05-10T06:29:25;30.90;99.90
5017;DHT22;2527;50.892;16.706;2023-05-10T06:31:51;29.50;99.90
5017;DHT22;2527;50.892;16.706;2023-05-10T06:34:16;28.40;99.90
5017;DHT22;2527;50.892;16.706;2023-05-10T06:36:42;27.30;99.90
5017;DHT22;2527;50.892;16.706;2023-05-10T06:39:08;26.40;99.90
5017;DHT22;2527;50.892;16.706;2023-05-10T06:41:34;25.60;99.90
5017;DHT22;2527;50.892;16.706;2023-05-10T06:43:59;25.00;99.90
5017;DHT22;2527;50.892;16.706;2023-05-10T06:46:25;24.40;99.90
5017;DHT22;2527;50.892;16.706;2023-05-10T06:48:51;24.10;99.90
5017;DHT22;2527;50.892;16.706;2023-05-10T06:51:16;23.80;99.90
5017;DHT22;2527;50.892;16.706;2023-05-10T06:53:43;23.40;99.90
5017;DHT22;2527;50.892;16.706;2023-05-10T06:56:08;23.10;99.90
5017;DHT22;2527;50.892;16.706;2023-05-10T06:58:34;22.90;99.90
5017;DHT22;2527;50.892;16.706;2023-05-10T07:01:04;22.60;99.90
5017;DHT22;2527;50.892;16.706;2023-05-10T07:03:30;22.50;99.90
5017;DHT22;2527;50.892;16.706;2023-05-10T07:06:01;22.40;99.90
5017;DHT22;2527;50.892;16.706;2023-05-10T07:08:29;22.30;99.90
5017;DHT22;2527;50.892;16.706;2023-05-10T07:11:05;22.30;99.90
5017;DHT22;2527;50.892;16.706;2023-05-10T07:13:33;22.20;99.90
5017;DHT22;2527;50.892;16.706;2023-05-10T07:15:59;22.20;99.90
5017;DHT22;2527;50.892;16.706;2023-05-10T07:18:25;22.10;99.90
5017;DHT22;2527;50.892;16.706;2023-05-10T07:20:51;22.10;99.90
5017;DHT22;2527;50.892;16.706;2023-05-10T07:23:17;22.10;99.90
5017;DHT22;2527;50.892;16.706;2023-05-10T07:25:46;22.10;99.90
5017;DHT22;2527;50.892;16.706;2023-05-10T07:28:12;22.10;99.90
5017;DHT22;2527;50.892;16.706;2023-05-10T07:30:39;22.10;99.90
5017;DHT22;2527;50.892;16.706;2023-05-10T07:33:05;22.10;99.90
5017;DHT22;2527;50.892;16.706;2023-05-10T07:35:31;22.00;99.90
5017;DHT22;2527;50.892;16.706;2023-05-10T07:37:57;22.00;99.90
5017;DHT22;2527;50.892;16.706;2023-05-10T07:40:23;22.00;99.90
5017;DHT22;2527;50.892;16.706;2023-05-10T07:42:48;22.00;99.90
5017;DHT22;2527;50.892;16.706;2023-05-10T07:45:14;21.90;99.90
5017;DHT22;2527;50.892;16.706;2023-05-10T07:47:41;21.90;99.90
5017;DHT22;2527;50.892;16.706;2023-05-10T07:50:07;21.80;99.90
5017;DHT22;2527;50.892;16.706;2023-05-10T07:52:33;21.90;99.90
5017;DHT22;2527;50.892;16.706;2023-05-10T07:54:59;21.90;99.90
5017;DHT22;2527;50.892;16.706;2023-05-10T07:57:24;22.00;99.90
5017;DHT22;2527;50.892;16.706;2023-05-10T07:59:50;22.10;99.90
5017;DHT22;2527;50.892;16.706;2023-05-10T08:02:16;22.10;99.90
5017;DHT22;2527;50.892;16.706;2023-05-10T08:04:42;22.10;99.90
5017;DHT22;2527;50.892;16.706;2023-05-10T08:07:09;22.10;99.90
5017;DHT22;2527;50.892;16.706;2023-05-10T08:09:34;22.10;99.90
5017;DHT22;2527;50.892;16.706;2023-05-10T08:12:01;22.00;99.90
5017;DHT22;2527;50.892;16.706;2023-05-10T08:14:27;22.00;99.90
5017;DHT22;2527;50.892;16.706;2023-05-10T08:16:53;22.00;99.90
5017;DHT22;2527;50.892;16.706;2023-05-10T08:19:19;21.90;99.90
5017;DHT22;2527;50.892;16.706;2023-05-10T08:21:46;21.90;99.90
5017;DHT22;2527;50.892;16.706;2023-05-10T08:24:13;21.80;99.90
5017;DHT22;2527;50.892;16.706;2023-05-10T08:26:38;21.80;99.90
5017;DHT22;2527;50.892;16.706;2023-05-10T08:29:04;21.70;99.90
5017;DHT22;2527;50.892;16.706;2023-05-10T08:31:29;21.70;99.90
5017;DHT22;2527;50.892;16.706;2023-05-10T08:33:55;21.70;99.90
5017;DHT22;2527;50.892;16.706;2023-05-10T08:36:21;21.80;99.90
5017;DHT22;2527;50.892;16.706;2023-05-10T08:38:52;21.80;99.90
5017;DHT22;2527;50.892;16.706;2023-05-10T08:41:19;21.80;99.90
5017;DHT22;2527;50.892;16.706;2023-05-10T08:43:46;21.80;99.90
5017;DHT22;2527;50.892;16.706;2023-05-10T08:46:14;21.80;99.90
5017;DHT22;2527;50.892;16.706;2023-05-10T08:48:40;21.90;99.90
5017;DHT22;2527;50.892;16.706;2023-05-10T08:51:06;21.90;99.90
5017;DHT22;2527;50.892;16.706;2023-05-10T08:53:33;22.00;99.90
5017;DHT22;2527;50.892;16.706;2023-05-10T08:56:01;22.10;99.90
5017;DHT22;2527;50.892;16.706;2023-05-10T08:58:27;22.20;99.90
5017;DHT22;2527;50.892;16.706;2023-05-10T09:00:53;22.20;99.90
5017;DHT22;2527;50.892;16.706;2023-05-10T09:03:19;22.10;99.90
5017;DHT22;2527;50.892;16.706;2023-05-10T09:05:45;22.10;99.90
5017;DHT22;2527;50.892;16.706;2023-05-10T09:08:11;22.10;99.90
5017;DHT22;2527;50.892;16.706;2023-05-10T09:10:38;22.00;99.90
5017;DHT22;2527;50.892;16.706;2023-05-10T09:13:05;22.00;99.90
5017;DHT22;2527;50.892;16.706;2023-05-10T09:15:31;22.10;99.90
5017;DHT22;2527;50.892;16.706;2023-05-10T09:17:56;22.10;99.90
5017;DHT22;2527;50.892;16.706;2023-05-10T09:20:24;22.10;99.90
5017;DHT22;2527;50.892;16.706;2023-05-10T09:22:50;22.10;99.90
5017;DHT22;2527;50.892;16.706;2023-05-10T09:25:16;22.00;99.90
5017;DHT22;2527;50.892;16.706;2023-05-10T09:27:46;22.00;99.90
5017;DHT22;2527;50.892;16.706;2023-05-10T09:32:47;21.90;99.90
5017;DHT22;2527;50.892;16.706;2023-05-10T09:35:15;21.80;99.90
5017;DHT22;2527;50.892;16.706;2023-05-10T09:37:41;21.80;99.90
5017;DHT22;2527;50.892;16.706;2023-05-10T09:40:11;21.80;99.90
5017;DHT22;2527;50.892;16.706;2023-05-10T09:42:39;21.80;99.90
5017;DHT22;2527;50.892;16.706;2023-05-10T09:45:05;21.80;99.90
5017;DHT22;2527;50.892;16.706;2023-05-10T09:47:32;21.70;99.90
5017;DHT22;2527;50.892;16.706;2023-05-10T09:49:59;21.60;99.90
5017;DHT22;2527;50.892;16.706;2023-05-10T09:52:31;21.50;99.90
5017;DHT22;2527;50.892;16.706;2023-05-10T09:55:11;21.40;99.90
5017;DHT22;2527;50.892;16.706;2023-05-10T09:57:37;21.40;99.90
5017;DHT22;2527;50.892;16.706;2023-05-10T10:00:03;21.30;99.90
5017;DHT22;2527;50.892;16.706;2023-05-10T10:02:31;21.20;99.90
5017;DHT22;2527;50.892;16.706;2023-05-10T10:04:57;21.20;99.90
5017;DHT22;2527;50.892;16.706;2023-05-10T10:07:23;21.20;99.90
5017;DHT22;2527;50.892;16.706;2023-05-10T10:09:52;21.20;99.90
5017;DHT22;2527;50.892;16.706;2023-05-10T10:12:18;21.30;99.90
5017;DHT22;2527;50.892;16.706;2023-05-10T10:14:48;21.40;99.90
5017;DHT22;2527;50.892;16.706;2023-05-10T10:17:15;21.50;99.90
5017;DHT22;2527;50.892;16.706;2023-05-10T10:19:41;21.60;99.90
5017;DHT22;2527;50.892;16.706;2023-05-10T10:22:08;21.70;99.90
5017;DHT22;2527;50.892;16.706;2023-05-10T10:24:37;21.70;99.90
5017;DHT22;2527;50.892;16.706;2023-05-10T10:27:24;21.80;99.90
5017;DHT22;2527;50.892;16.706;2023-05-10T10:29:51;21.90;99.90
5017;DHT22;2527;50.892;16.706;2023-05-10T10:32:33;21.90;99.90
5017;DHT22;2527;50.892;16.706;2023-05-10T10:35:01;21.90;99.90
5017;DHT22;2527;50.892;16.706;2023-05-10T10:37:44;21.80;99.90
5017;DHT22;2527;50.892;16.706;2023-05-10T10:40:29;21.80;99.90
5017;DHT22;2527;50.892;16.706;2023-05-10T10:42:55;21.90;99.90
5017;DHT22;2527;50.892;16.706;2023-05-10T10:45:22;21.90;99.90
5017;DHT22;2527;50.892;16.706;2023-05-10T10:47:48;22.00;99.90
5017;DHT22;2527;50.892;16.706;2023-05-10T10:50:15;22.10;99.90
5017;DHT22;2527;50.892;16.706;2023-05-10T10:52:43;22.20;99.90
5017;DHT22;2527;50.892;16.706;2023-05-10T10:55:10;22.20;99.90
5017;DHT22;2527;50.892;16.706;2023-05-10T10:57:45;22.10;99.90
5017;DHT22;2527;50.892;16.706;2023-05-10T11:00:22;22.20;99.90
5017;DHT22;2527;50.892;16.706;2023-05-10T11:02:49;22.20;99.90
5017;DHT22;2527;50.892;16.706;2023-05-10T11:08:06;22.30;99.90
5017;DHT22;2527;50.892;16.706;2023-05-10T11:10:32;22.20;99.90
5017;DHT22;2527;50.892;16.706;2023-05-10T11:13:08;22.20;99.90
5017;DHT22;2527;50.892;16.706;2023-05-10T11:15:36;22.10;99.90
5017;DHT22;2527;50.892;16.706;2023-05-10T11:18:18;22.00;99.90
5017;DHT22;2527;50.892;16.706;2023-05-10T11:20:44;22.00;99.90
5017;DHT22;2527;50.892;16.706;2023-05-10T11:23:15;22.00;99.90
5017;DHT22;2527;50.892;16.706;2023-05-10T11:25:43;22.00;99.90
5017;DHT22;2527;50.892;16.706;2023-05-10T11:28:12;22.00;99.90
5017;DHT22;2527;50.892;16.706;2023-05-10T11:30:41;21.90;99.90
5017;DHT22;2527;50.892;16.706;2023-05-10T11:33:08;21.70;99.90
5017;DHT22;2527;50.892;16.706;2023-05-10T11:35:37;21.60;99.90
5017;DHT22;2527;50.892;16.706;2023-05-10T11:38:07;21.50;99.90
5017;DHT22;2527;50.892;16.706;2023-05-10T11:40:33;21.40;99.90
5017;DHT22;2527;50.892;16.706;2023-05-10T11:42:59;21.30;99.90
5017;DHT22;2527;50.892;16.706;2023-05-10T11:45:25;21.20;99.90
5017;DHT22;2527;50.892;16.706;2023-05-10T11:47:51;21.10;99.90
5017;DHT22;2527;50.892;16.706;2023-05-10T11:50:17;21.00;99.90
5017;DHT22;2527;50.892;16.706;2023-05-10T11:52:44;21.00;99.90
5017;DHT22;2527;50.892;16.706;2023-05-10T11:55:10;21.00;99.90
5017;DHT22;2527;50.892;16.706;2023-05-10T11:57:35;21.00;99.90
5017;DHT22;2527;50.892;16.706;2023-05-10T12:00:03;21.00;99.90
5017;DHT22;2527;50.892;16.706;2023-05-10T12:02:31;21.10;99.90
5017;DHT22;2527;50.892;16.706;2023-05-10T12:04:57;21.20;99.90
5017;DHT22;2527;50.892;16.706;2023-05-10T12:07:23;21.20;99.90
5017;DHT22;2527;50.892;16.706;2023-05-10T12:12:45;21.20;99.90
5017;DHT22;2527;50.892;16.706;2023-05-10T12:15:22;21.20;99.90
5017;DHT22;2527;50.892;16.706;2023-05-10T12:17:49;21.20;99.90
5017;DHT22;2527;50.892;16.706;2023-05-10T12:20:21;21.20;99.90
5017;DHT22;2527;50.892;16.706;2023-05-10T12:22:55;21.10;99.90
5017;DHT22;2527;50.892;16.706;2023-05-10T12:25:22;21.10;99.90
5017;DHT22;2527;50.892;16.706;2023-05-10T12:27:51;21.10;99.90
5017;DHT22;2527;50.892;16.706;2023-05-10T12:30:24;21.00;99.90
5017;DHT22;2527;50.892;16.706;2023-05-10T12:32:51;21.00;99.90
5017;DHT22;2527;50.892;16.706;2023-05-10T12:35:17;21.00;99.90
5017;DHT22;2527;50.892;16.706;2023-05-10T12:37:47;21.00;99.90
5017;DHT22;2527;50.892;16.706;2023-05-10T12:40:13;21.00;99.90
5017;DHT22;2527;50.892;16.706;2023-05-10T12:42:39;20.90;99.90
5017;DHT22;2527;50.892;16.706;2023-05-10T12:45:05;20.90;99.90
5017;DHT22;2527;50.892;16.706;2023-05-10T12:47:32;21.00;99.90
5017;DHT22;2527;50.892;16.706;2023-05-10T12:49:59;21.00;99.90
5017;DHT22;2527;50.892;16.706;2023-05-10T12:52:27;21.00;99.90
5017;DHT22;2527;50.892;16.706;2023-05-10T12:54:53;20.90;99.90
5017;DHT22;2527;50.892;16.706;2023-05-10T12:57:22;20.90;99.90
5017;DHT22;2527;50.892;16.706;2023-05-10T12:59:47;21.00;99.90
5017;DHT22;2527;50.892;16.706;2023-05-10T13:02:13;21.00;99.90
5017;DHT22;2527;50.892;16.706;2023-05-10T13:04:40;21.00;99.90
5017;DHT22;2527;50.892;16.706;2023-05-10T13:07:06;21.00;99.90
5017;DHT22;2527;50.892;16.706;2023-05-10T13:09:31;21.00;99.90
5017;DHT22;2527;50.892;16.706;2023-05-10T13:11:57;21.00;99.90
5017;DHT22;2527;50.892;16.706;2023-05-10T13:14:24;21.00;99.90
5017;DHT22;2527;50.892;16.706;2023-05-10T13:16:50;21.00;99.90
5017;DHT22;2527;50.892;16.706;2023-05-10T13:19:15;21.10;99.90
5017;DHT22;2527;50.892;16.706;2023-05-10T13:21:42;21.10;99.90
5017;DHT22;2527;50.892;16.706;2023-05-10T13:24:11;21.20;99.90
5017;DHT22;2527;50.892;16.706;2023-05-10T13:26:42;21.20;99.90
5017;DHT22;2527;50.892;16.706;2023-05-10T13:29:08;21.30;99.90
5017;DHT22;2527;50.892;16.706;2023-05-10T13:31:34;21.30;99.90
5017;DHT22;2527;50.892;16.706;2023-05-10T13:34:00;21.30;99.90
5017;DHT22;2527;50.892;16.706;2023-05-10T13:36:25;21.40;99.90
5017;DHT22;2527;50.892;16.706;2023-05-10T13:38:51;21.40;99.90
5017;DHT22;2527;50.892;16.706;2023-05-10T13:41:17;21.40;99.90
5017;DHT22;2527;50.892;16.706;2023-05-10T13:43:43;21.40;99.90
5017;DHT22;2527;50.892;16.706;2023-05-10T13:46:09;21.40;99.90
5017;DHT22;2527;50.892;16.706;2023-05-10T13:48:35;21.40;99.90
5017;DHT22;2527;50.892;16.706;2023-05-10T13:51:04;21.30;99.90
5017;DHT22;2527;50.892;16.706;2023-05-10T13:53:30;21.20;99.90
5017;DHT22;2527;50.892;16.706;2023-05-10T13:55:56;21.20;99.90
5017;DHT22;2527;50.892;16.706;2023-05-10T13:58:22;21.20;99.90
5017;DHT22;2527;50.892;16.706;2023-05-10T14:00:49;21.20;99.90
5017;DHT22;2527;50.892;16.706;2023-05-10T14:03:15;21.20;99.90
5017;DHT22;2527;50.892;16.706;2023-05-10T14:05:41;21.30;99.90
5017;DHT22;2527;50.892;16.706;2023-05-10T14:08:07;21.30;99.90
5017;DHT22;2527;50.892;16.706;2023-05-10T14:10:35;21.40;99.90
5017;DHT22;2527;50.892;16.706;2023-05-10T14:13:00;21.40;99.90
5017;DHT22;2527;50.892;16.706;2023-05-10T14:15:26;21.50;99.90
5017;DHT22;2527;50.892;16.706;2023-05-10T14:17:52;21.40;99.90
5017;DHT22;2527;50.892;16.706;2023-05-10T14:20:18;21.40;99.90
5017;DHT22;2527;50.892;16.706;2023-05-10T14:22:44;21.40;99.90
5017;DHT22;2527;50.892;16.706;2023-05-10T14:25:09;21.30;99.90
5017;DHT22;2527;50.892;16.706;2023-05-10T14:27:35;21.20;99.90
5017;DHT22;2527;50.892;16.706;2023-05-10T14:30:00;21.20;99.90
5017;DHT22;2527;50.892;16.706;2023-05-10T14:32:27;21.20;99.90
5017;DHT22;2527;50.892;16.706;2023-05-10T14:34:53;21.20;99.90
5017;DHT22;2527;50.892;16.706;2023-05-10T14:37:19;21.10;99.90
5017;DHT22;2527;50.892;16.706;2023-05-10T14:39:44;21.20;99.90
5017;DHT22;2527;50.892;16.706;2023-05-10T14:42:11;21.20;99.90
5017;DHT22;2527;50.892;16.706;2023-05-10T14:44:37;21.20;99.90
5017;DHT22;2527;50.892;16.706;2023-05-10T14:47:03;21.20;99.90
5017;DHT22;2527;50.892;16.706;2023-05-10T14:49:29;21.20;99.90
5017;DHT22;2527;50.892;16.706;2023-05-10T14:51:54;21.20;99.90
5017;DHT22;2527;50.892;16.706;2023-05-10T14:54:20;21.10;99.90
5017;DHT22;2527;50.892;16.706;2023-05-10T14:56:46;21.10;99.90
5017;DHT22;2527;50.892;16.706;2023-05-10T14:59:14;21.10;99.90
5017;DHT22;2527;50.892;16.706;2023-05-10T15:01:39;21.10;99.90
5017;DHT22;2527;50.892;16.706;2023-05-10T15:04:07;21.10;99.90
5017;DHT22;2527;50.892;16.706;2023-05-10T15:06:33;21.00;99.90
5017;DHT22;2527;50.892;16.706;2023-05-10T15:09:00;21.00;99.90
5017;DHT22;2527;50.892;16.706;2023-05-10T15:11:26;21.00;99.90
5017;DHT22;2527;50.892;16.706;2023-05-10T15:13:53;21.00;99.90
5017;DHT22;2527;50.892;16.706;2023-05-10T15:16:18;21.00;99.90
5017;DHT22;2527;50.892;16.706;2023-05-10T15:18:44;21.00;99.90
5017;DHT22;2527;50.892;16.706;2023-05-10T15:21:11;21.00;99.90
5017;DHT22;2527;50.892;16.706;2023-05-10T15:23:36;21.00;99.90
5017;DHT22;2527;50.892;16.706;2023-05-10T15:26:02;20.90;99.90
5017;DHT22;2527;50.892;16.706;2023-05-10T15:28:28;20.90;99.90
5017;DHT22;2527;50.892;16.706;2023-05-10T15:30:54;20.90;99.90
5017;DHT22;2527;50.892;16.706;2023-05-10T15:33:20;20.90;99.90
5017;DHT22;2527;50.892;16.706;2023-05-10T15:35:46;20.80;99.90
5017;DHT22;2527;50.892;16.706;2023-05-10T15:38:12;20.80;99.90
5017;DHT22;2527;50.892;16.706;2023-05-10T15:40:38;20.80;99.90
5017;DHT22;2527;50.892;16.706;2023-05-10T15:43:04;20.70;99.90
5017;DHT22;2527;50.892;16.706;2023-05-10T15:45:30;20.70;99.90
5017;DHT22;2527;50.892;16.706;2023-05-10T15:47:57;20.70;99.90
5017;DHT22;2527;50.892;16.706;2023-05-10T15:50:24;20.60;99.90
5017;DHT22;2527;50.892;16.706;2023-05-10T15:52:50;20.60;99.90
5017;DHT22;2527;50.892;16.706;2023-05-10T15:55:15;20.60;99.90
5017;DHT22;2527;50.892;16.706;2023-05-10T15:57:42;20.60;99.90
5017;DHT22;2527;50.892;16.706;2023-05-10T16:00:08;20.50;99.90
5017;DHT22;2527;50.892;16.706;2023-05-10T16:02:37;20.50;99.90
5017;DHT22;2527;50.892;16.706;2023-05-10T16:05:03;20.50;99.90
5017;DHT22;2527;50.892;16.706;2023-05-10T16:07:28;20.50;99.90
5017;DHT22;2527;50.892;16.706;2023-05-10T16:09:55;20.50;99.90
5017;DHT22;2527;50.892;16.706;2023-05-10T16:12:21;20.50;99.90